Latest Weather Observations for Williamtown

IDN60801

Issued at 7:05 pm EST Sunday 31 July 2016 (issued every 30 minutes, with the page automatically refreshed every 10 minutes)

About weather observations | Map of weather stations | Latest weather observations for NSW | Other Formats
Station Details ID: 061078 Name: WILLIAMTOWN RAAF Lat: -32.79 Lon: 151.84 Height: 9.0 m
Data from the previous 72 hours. | See also: Recent months at Williamtown
Date/Time
EST
Temp
°C
App
Temp
°C
Dew
Point
°C
Rel
Hum
%
Delta-T
°C
Wind Press
QNH
hPa
Press
MSL
hPa
Rain since
9am
mm
Dir  Spd
km/h
Gust
km/h
Spd
kts
Gust
kts
31/07:00pm 16.6 12.9 4.7 45 5.6 NW 13 17 7 9 1017.2 1017.2 0.0
31/06:30pm 16.0 12.5 5.3 49 5.1 NW 13 17 7 9 1016.8 1016.8 0.0
31/06:00pm 16.9 12.6 5.2 46 5.6 WNW 17 22 9 12 1016.9 1016.9 0.0
31/05:30pm 17.9 13.5 5.0 42 6.2 WNW 17 24 9 13 1016.5 1016.5 0.0
31/05:00pm 18.4 14.4 4.9 41 6.5 WNW 15 19 8 10 1016.3 1016.3 0.0
31/04:30pm 18.4 15.0 5.7 43 6.2 WNW 13 15 7 8 1016.1 1016.1 0.0
31/04:00pm 19.3 14.8 4.2 37 7.2 WNW 17 22 9 12 1015.9 1015.9 0.0
31/03:30pm 19.4 13.5 3.8 35 7.4 WNW 24 30 13 16 1015.5 1015.5 0.0
31/03:00pm 19.4 15.5 5.2 39 6.9 W 15 20 8 11 1015.7 1015.7 0.0
31/02:30pm 20.3 14.7 3.7 33 7.9 WNW 22 30 12 16 1015.7 1015.7 0.0
31/02:00pm 20.6 14.5 2.9 31 8.3 WNW 24 37 13 20 1015.8 1015.8 0.0
31/01:30pm 21.2 14.1 3.7 31 8.4 NW 30 37 16 20 1016.0 1016.0 0.0
31/01:00pm 20.1 14.0 4.6 36 7.5 WNW 26 32 14 17 1016.0 1016.0 0.0
31/12:30pm 19.4 12.1 4.7 38 7.1 NW 32 43 17 23 1016.5 1016.5 0.0
31/12:00pm 19.7 11.8 4.2 36 7.4 WNW 35 48 19 26 1016.9 1016.9 0.0
31/11:30am 19.0 11.8 4.9 39 6.8 WNW 32 41 17 22 1017.6 1017.6 0.0
31/11:00am 18.3 11.1 6.1 44 6.0 WNW 33 48 18 26 1018.1 1018.1 0.0
31/10:30am 17.2 9.6 5.6 46 5.6 WNW 35 48 19 26 1018.4 1018.4 0.0
31/10:00am 16.4 8.9 6.3 51 4.9 WNW 35 48 19 26 1018.6 1018.6 0.0
31/09:30am 14.7 6.9 6.6 58 3.9 WNW 37 50 20 27 1018.6 1018.6 0.0
31/09:25am 14.4 7.0 6.8 60 3.7 WNW 35 50 19 27 1018.6 1018.6 0.0
31/09:00am 12.8 8.6 8.1 73 2.3 WNW 20 30 11 16 1018.6 1018.6 0.0
31/08:30am 10.6 6.5 7.7 82 1.4 NW 19 26 10 14 1018.5 1018.5 0.0
31/08:00am 9.4 6.0 7.7 89 0.8 NW 15 19 8 10 1018.2 1018.2 0.0
31/07:30am 7.9 5.9 7.3 96 0.3 W 7 11 4 6 1018.2 1018.2 0.0
31/07:00am 7.4 5.6 7.2 99 0.1 NNW 6 7 3 4 1017.8 1017.8 0.0
31/06:34am 7.5 5.1 6.8 95 0.3 NW 9 9 5 5 1017.7 1017.7 0.0
31/06:30am 7.2 4.7 6.5 95 0.3 NW 9 11 5 6 1017.8 1017.8 0.0
31/06:12am 7.3 5.3 7.1 99 0.1 NW 7 7 4 4 1017.7 1017.7 0.0
31/06:00am 7.3 4.8 6.6 95 0.3 NW 9 13 5 7 1017.7 1017.7 0.0
31/05:30am 8.1 5.7 7.2 94 0.4 NNW 9 15 5 8 1017.7 1017.7 0.0
31/05:00am 7.0 3.7 6.6 97 0.2 WNW 13 15 7 8 1017.8 1017.8 0.0
31/04:30am 7.1 4.2 6.7 97 0.2 NW 11 13 6 7 1017.8 1017.8 0.0
31/04:00am 7.0 4.2 6.8 99 0.1 NNW 11 13 6 7 1017.8 1017.8 0.0
31/03:30am 6.4 4.3 6.0 97 0.2 WSW 6 9 3 5 1018.0 1018.0 0.0
31/03:00am 6.3 4.2 5.9 97 0.2 NNW 6 7 3 4 1017.9 1017.9 0.0
31/02:30am 6.4 4.3 6.0 97 0.2 NNW 6 7 3 4 1018.2 1018.2 0.0
31/02:00am 6.3 4.0 5.9 97 0.2 NNW 7 9 4 5 1018.4 1018.4 0.0
31/01:37am 6.6 4.7 6.6 100 0.0 WNW 6 7 3 4 1018.8 1018.8 0.0
31/01:30am 6.8 4.9 6.6 99 0.1 WNW 6 7 3 4 1018.9 1018.9 0.0
31/01:16am 6.8 4.7 6.6 99 0.1 WNW 7 9 4 5 1019.1 1019.1 0.0
31/01:00am 6.4 4.3 6.0 97 0.2 W 6 7 3 4 1019.2 1019.2 0.0
31/12:55am 6.3 4.6 5.8 97 0.2 WSW 4 7 2 4 1019.3 1019.3 0.0
31/12:33am 6.8 5.9 6.1 95 0.3 CALM 0 0 0 0 1019.4 1019.4 0.0
31/12:30am 7.2 6.5 6.8 97 0.2 CALM 0 0 0 0 1019.4 1019.4 0.0
31/12:00am 7.1 6.2 6.2 94 0.4 CALM 0 0 0 0 1019.6 1019.6 0.0
 
Date/Time
EST
Temp
°C
App
Temp
°C
Dew
Point
°C
Rel
Hum
%
Delta-T
°C
Wind Press
QNH
hPa
Press
MSL
hPa
Rain since
9am
mm
Dir  Spd
km/h
Gust
km/h
Spd
kts
Gust
kts
30/11:30pm 8.4 7.8 7.5 94 0.4 CALM 0 0 0 0 1019.8 1019.8 0.0
30/11:00pm 8.7 8.3 8.1 96 0.3 CALM 0 0 0 0 1020.2 1020.2 0.0
30/10:30pm 8.8 7.2 8.0 95 0.4 NNW 6 7 3 4 1020.1 1020.1 0.0
30/10:00pm 8.7 7.1 7.9 95 0.4 NNW 6 7 3 4 1020.3 1020.3 0.0
30/09:30pm 8.5 6.9 7.9 96 0.3 NNW 6 9 3 5 1020.4 1020.4 0.0
30/09:00pm 8.6 8.0 7.5 93 0.5 CALM 0 0 0 0 1020.4 1020.4 0.0
30/08:30pm 10.0 9.4 9.0 93 0.5 NNW 2 6 1 3 1020.3 1020.3 0.0
30/08:00pm 8.9 6.9 8.5 97 0.2 NW 9 11 5 6 1020.5 1020.5 0.0
30/07:30pm 10.0 9.8 9.2 95 0.4 CALM 0 4 0 2 1020.2 1020.2 0.0
30/07:00pm 10.4 10.3 9.4 93 0.5 CALM 0 6 0 3 1020.1 1020.1 0.0
30/06:30pm 11.7 11.8 10.1 90 0.8 CALM 0 6 0 3 1020.3 1020.3 0.0
30/06:00pm 13.1 12.1 10.4 84 1.4 SSE 6 7 3 4 1020.0 1020.0 0.0
30/05:30pm 14.3 12.8 10.7 79 1.9 SSE 9 13 5 7 1020.0 1020.0 0.0
30/05:00pm 15.3 13.5 10.8 74 2.4 SSE 11 15 6 8 1020.0 1020.0 0.0
30/04:30pm 16.7 14.0 10.3 66 3.4 SSE 15 17 8 9 1020.0 1020.0 0.0
30/04:00pm 17.1 13.8 9.6 61 3.9 SSE 17 22 9 12 1020.0 1020.0 0.0
30/03:30pm 17.9 15.2 8.8 55 4.7 SSE 13 17 7 9 1020.2 1020.2 0.0
30/03:00pm 17.8 14.1 7.9 52 5.0 S 17 20 9 11 1020.4 1020.4 0.0
30/02:30pm 18.2 15.0 7.0 48 5.6 SW 13 20 7 11 1020.3 1020.3 0.0
30/02:00pm 18.5 16.5 6.9 46 5.8 WSW 7 13 4 7 1020.4 1020.4 0.0
30/01:30pm 17.4 14.9 6.7 49 5.3 WNW 9 13 5 7 1020.6 1020.6 0.0
30/01:00pm 17.5 14.9 6.0 46 5.6 WNW 9 13 5 7 1020.9 1020.9 0.0
30/12:30pm 17.3 13.4 5.2 45 5.8 NW 15 19 8 10 1021.3 1021.3 0.0
30/12:00pm 17.2 12.8 4.7 43 5.9 WNW 17 26 9 14 1021.7 1021.7 0.0
30/11:30am 16.4 11.6 4.4 45 5.6 NW 19 26 10 14 1022.3 1022.3 0.0
30/11:00am 14.9 9.9 4.5 49 4.8 NW 20 26 11 14 1022.7 1022.7 0.0
30/10:30am 14.6 9.1 4.1 49 4.8 WNW 22 28 12 15 1023.0 1023.0 0.0
30/10:00am 13.1 6.8 3.7 53 4.2 WNW 26 33 14 18 1022.9 1022.9 0.0
30/09:30am 11.9 5.2 3.8 57 3.6 NW 28 33 15 18 1023.2 1023.2 0.0
30/09:00am 11.1 4.4 3.9 61 3.2 NW 28 35 15 19 1023.3 1023.3 0.0
30/08:30am 10.3 4.0 3.9 64 2.8 WNW 26 33 14 18 1023.5 1023.5 0.0
30/08:00am 9.0 3.1 3.7 69 2.3 WNW 24 28 13 15 1023.4 1023.4 0.0
30/07:30am 7.8 2.6 3.6 75 1.8 NW 20 28 11 15 1023.2 1023.2 0.0
30/07:00am 7.1 1.9 3.8 79 1.4 WNW 20 28 11 15 1023.0 1023.0 0.0
30/06:30am 7.2 2.0 3.7 78 1.5 WNW 20 30 11 16 1022.7 1022.7 0.0
30/06:00am 7.5 1.9 3.7 77 1.6 WNW 22 30 12 16 1022.5 1022.5 0.0
30/05:30am 7.7 2.5 3.7 76 1.7 WNW 20 28 11 15 1022.3 1022.3 0.0
30/05:00am 7.8 1.5 3.8 76 1.7 WNW 26 32 14 17 1022.1 1022.1 0.0
30/04:30am 7.2 1.7 3.9 79 1.4 WNW 22 32 12 17 1022.0 1022.0 0.0
30/04:00am 7.7 2.2 4.0 77 1.6 WNW 22 28 12 15 1021.8 1021.8 0.0
30/03:30am 7.7 2.2 4.0 77 1.6 WNW 22 32 12 17 1021.7 1021.7 0.0
30/03:00am 7.9 2.4 4.2 77 1.6 WNW 22 30 12 16 1021.7 1021.7 0.0
30/02:30am 7.8 2.4 4.3 78 1.5 WNW 22 28 12 15 1021.7 1021.7 0.0
30/02:00am 8.0 2.6 4.3 77 1.6 WNW 22 28 12 15 1021.7 1021.7 0.0
30/01:30am 8.3 2.9 4.4 76 1.7 WNW 22 28 12 15 1021.8 1021.8 0.0
30/01:00am 8.6 3.2 4.5 75 1.8 WNW 22 30 12 16 1021.7 1021.7 0.0
30/12:30am 8.8 3.8 4.7 75 1.8 WNW 20 28 11 15 1021.7 1021.7 0.0
30/12:00am 9.1 4.3 4.8 74 1.9 WNW 19 24 10 13 1021.6 1021.6 0.0
 
Date/Time
EST
Temp
°C
App
Temp
°C
Dew
Point
°C
Rel
Hum
%
Delta-T
°C
Wind Press
QNH
hPa
Press
MSL
hPa
Rain since
9am
mm
Dir  Spd
km/h
Gust
km/h
Spd
kts
Gust
kts
29/11:30pm 9.6 4.6 4.6 71 2.2 WNW 20 28 11 15 1021.6 1021.6 0.0
29/11:00pm 10.2 4.4 4.6 68 2.5 WNW 24 32 13 17 1021.4 1021.4 0.0
29/10:30pm 10.5 4.4 4.7 67 2.6 WNW 26 35 14 19 1021.0 1021.0 0.0
29/10:00pm 10.9 5.1 4.4 64 2.9 WNW 24 35 13 19 1020.6 1020.6 0.0
29/09:30pm 11.6 5.0 4.2 60 3.3 WNW 28 41 15 22 1020.8 1020.8 0.0
29/09:00pm 11.8 4.4 4.2 59 3.4 WNW 32 39 17 21 1020.5 1020.5 0.0
29/08:30pm 11.9 4.4 3.5 56 3.7 WNW 32 37 17 20 1020.2 1020.2 0.0
29/08:00pm 11.7 5.3 3.3 56 3.7 WNW 26 33 14 18 1020.1 1020.1 0.0
29/07:30pm 11.9 6.2 3.0 54 3.9 WNW 22 32 12 17 1020.0 1020.0 0.0
29/07:00pm 11.8 7.0 2.8 54 3.9 NW 17 22 9 12 1019.6 1019.6 0.0
29/06:30pm 12.3 7.0 2.9 52 4.1 NW 20 26 11 14 1019.4 1019.4 0.0
29/06:00pm 12.1 6.4 2.7 52 4.1 WNW 22 26 12 14 1019.3 1019.3 0.0
29/05:30pm 13.0 7.6 2.2 48 4.7 WNW 20 30 11 16 1019.0 1019.0 0.0
29/05:00pm 14.2 8.4 2.1 44 5.3 WNW 22 30 12 16 1019.0 1019.0 0.0
29/04:30pm 15.4 8.9 2.4 41 5.8 WNW 26 32 14 17 1018.6 1018.6 0.0
29/04:00pm 16.2 8.5 2.4 39 6.2 NW 32 41 17 22 1018.5 1018.5 0.0
29/03:30pm 16.5 9.7 3.1 40 6.1 WNW 28 39 15 21 1018.7 1018.7 0.0
29/03:00pm 16.7 9.9 3.1 40 6.2 WNW 28 39 15 21 1018.7 1018.7 0.0
29/02:30pm 17.5 11.2 3.5 39 6.5 WNW 26 35 14 19 1018.7 1018.7 0.0
29/02:00pm 17.2 10.3 2.7 38 6.6 WNW 28 33 15 18 1018.9 1018.9 0.0
29/01:30pm 16.9 9.3 2.8 39 6.4 WNW 32 39 17 21 1019.2 1019.2 0.0
29/01:00pm 16.4 9.6 3.0 40 6.1 NW 28 35 15 19 1019.8 1019.8 0.0
29/12:30pm 16.7 9.6 3.4 41 6.1 NW 30 37 16 20 1020.4 1020.4 0.0
29/12:00pm 15.7 8.5 3.1 43 5.7 NW 30 39 16 21 1021.1 1021.1 0.0
29/11:30am 14.7 7.9 3.1 45 5.2 NW 28 35 15 19 1021.9 1021.9 0.0
29/11:00am 14.1 7.3 3.1 47 4.9 NW 28 35 15 19 1022.7 1022.7 0.0
29/10:30am 13.0 5.4 2.7 49 4.5 WNW 32 44 17 24 1023.1 1023.1 0.0
29/10:00am 11.9 4.0 2.4 52 4.1 WNW 33 41 18 22 1023.5 1023.5 0.0
29/09:30am 11.2 2.5 2.0 53 3.9 WNW 37 48 20 26 1023.6 1023.6 0.0
29/09:00am 10.5 2.3 2.8 59 3.3 WNW 35 48 19 26 1023.6 1023.6 0.0
29/08:30am 9.5 2.7 2.9 63 2.8 WNW 28 43 15 23 1023.6 1023.6 0.0
29/08:00am 8.6 2.5 2.9 67 2.4 WNW 24 35 13 19 1023.5 1023.5 0.0
29/07:30am 7.6 2.3 3.1 73 1.9 WNW 20 28 11 15 1023.6 1023.6 0.0
29/07:00am 6.6 1.9 3.0 78 1.5 WNW 17 26 9 14 1023.5 1023.5 0.0
29/06:30am 6.6 1.9 3.0 78 1.5 WNW 17 24 9 13 1023.5 1023.5 0.0
29/06:00am 6.4 2.1 3.3 80 1.3 WNW 15 20 8 11 1023.2 1023.2 0.0
29/05:30am 6.8 1.7 3.2 78 1.5 WNW 19 28 10 15 1023.0 1023.0 0.0
29/05:00am 7.4 1.8 3.4 76 1.7 WNW 22 30 12 16 1023.1 1023.1 0.0
29/04:30am 7.8 1.0 3.3 73 1.9 WNW 28 33 15 18 1022.9 1022.9 0.0
29/04:00am 8.0 1.7 3.8 75 1.8 WNW 26 32 14 17 1022.8 1022.8 0.0
29/03:30am 8.0 1.4 4.1 76 1.7 WNW 28 35 15 19 1022.6 1022.6 0.0
29/03:00am 8.1 2.3 4.2 76 1.7 WNW 24 32 13 17 1022.7 1022.7 0.0
29/02:30am 8.3 2.9 4.7 78 1.6 WNW 22 28 12 15 1022.7 1022.7 0.0
29/02:00am 8.5 3.7 4.9 78 1.6 WNW 19 26 10 14 1022.7 1022.7 0.0
29/01:30am 8.6 3.9 5.0 78 1.6 WNW 19 24 10 13 1022.8 1022.8 0.0
29/01:00am 9.3 4.4 5.0 74 1.9 WNW 20 28 11 15 1022.9 1022.9 0.0
29/12:30am 9.5 4.8 5.0 73 2.0 WNW 19 26 10 14 1023.0 1023.0 0.0
29/12:00am 9.3 4.6 5.3 76 1.8 WNW 19 26 10 14 1023.1 1023.1 0.0
 
Date/Time
EST
Temp
°C
App
Temp
°C
Dew
Point
°C
Rel
Hum
%
Delta-T
°C
Wind Press
QNH
hPa
Press
MSL
hPa
Rain since
9am
mm
Dir  Spd
km/h
Gust
km/h
Spd
kts
Gust
kts
28/11:30pm 9.2 5.3 5.4 77 1.7 WNW 15 20 8 11 1023.1 1023.1 0.0
28/11:00pm 9.2 5.4 5.7 79 1.6 WNW 15 19 8 10 1023.1 1023.1 0.0
28/10:30pm 9.6 5.8 5.9 78 1.7 WNW 15 19 8 10 1023.1 1023.1 0.0
28/10:00pm 9.5 6.0 5.5 76 1.8 NW 13 17 7 9 1022.9 1022.9 0.0
28/09:30pm 8.8 5.7 5.5 80 1.5 WNW 11 13 6 7 1022.9 1022.9 0.0
28/09:00pm 9.5 6.8 5.5 76 1.8 WNW 9 11 5 6 1022.7 1022.7 0.0
28/08:30pm 9.8 6.7 5.6 75 1.9 NW 11 11 6 6 1022.6 1022.6 0.0
28/08:00pm 10.7 8.0 5.4 70 2.4 NNW 9 11 5 6 1022.5 1022.5 0.0
28/07:30pm 12.0 8.8 5.2 63 3.1 NNW 11 11 6 6 1022.5 1022.5 0.0

Other Formats:

Comma delimited format used in spreadsheet applications
http://www.bom.gov.au/fwo/IDN60801/IDN60801.94776.axf

JavaScript Object Notation format (JSON) in row-major order
http://www.bom.gov.au/fwo/IDN60801/IDN60801.94776.json